sensor_id;sensor_type;location;lat;lon;timestamp;P1;durP1;ratioP1;P2;durP2;ratioP2
72684;SDS011;61365;52.162;4.500;2022-11-20T00:01:26;18.02;;;10.27;;
72684;SDS011;61365;52.162;4.500;2022-11-20T00:03:54;20.95;;;10.93;;
72684;SDS011;61365;52.162;4.500;2022-11-20T00:06:23;23.38;;;10.85;;
72684;SDS011;61365;52.162;4.500;2022-11-20T00:08:50;18.77;;;9.63;;
72684;SDS011;61365;52.162;4.500;2022-11-20T00:11:18;17.15;;;9.45;;
72684;SDS011;61365;52.162;4.500;2022-11-20T00:13:48;19.33;;;10.85;;
72684;SDS011;61365;52.162;4.500;2022-11-20T00:16:19;19.98;;;11.23;;
72684;SDS011;61365;52.162;4.500;2022-11-20T00:18:48;21.23;;;10.88;;
72684;SDS011;61365;52.162;4.500;2022-11-20T00:21:16;18.48;;;9.75;;
72684;SDS011;61365;52.162;4.500;2022-11-20T00:23:49;19.50;;;10.85;;
72684;SDS011;61365;52.162;4.500;2022-11-20T00:26:18;23.52;;;10.68;;
72684;SDS011;61365;52.162;4.500;2022-11-20T00:28:51;19.65;;;10.07;;
72684;SDS011;61365;52.162;4.500;2022-11-20T00:31:20;20.80;;;11.13;;
72684;SDS011;61365;52.162;4.500;2022-11-20T00:33:47;20.48;;;11.15;;
72684;SDS011;61365;52.162;4.500;2022-11-20T00:36:15;19.20;;;10.27;;
72684;SDS011;61365;52.162;4.500;2022-11-20T00:38:50;24.50;;;11.95;;
72684;SDS011;61365;52.162;4.500;2022-11-20T00:41:19;18.98;;;10.73;;
72684;SDS011;61365;52.162;4.500;2022-11-20T00:43:46;19.52;;;10.48;;
72684;SDS011;61365;52.162;4.500;2022-11-20T00:46:14;23.00;;;11.15;;
72684;SDS011;61365;52.162;4.500;2022-11-20T00:48:44;20.83;;;10.75;;
72684;SDS011;61365;52.162;4.500;2022-11-20T00:51:12;22.38;;;11.43;;
72684;SDS011;61365;52.162;4.500;2022-11-20T00:53:45;21.40;;;10.52;;
72684;SDS011;61365;52.162;4.500;2022-11-20T00:56:13;22.70;;;11.77;;
72684;SDS011;61365;52.162;4.500;2022-11-20T00:58:43;20.38;;;11.13;;
72684;SDS011;61365;52.162;4.500;2022-11-20T01:01:14;21.00;;;10.07;;
72684;SDS011;61365;52.162;4.500;2022-11-20T01:03:50;19.40;;;10.25;;
72684;SDS011;61365;52.162;4.500;2022-11-20T01:06:23;20.42;;;10.20;;
72684;SDS011;61365;52.162;4.500;2022-11-20T01:08:53;20.08;;;11.00;;
72684;SDS011;61365;52.162;4.500;2022-11-20T01:11:23;19.58;;;10.25;;
72684;SDS011;61365;52.162;4.500;2022-11-20T01:13:56;20.20;;;11.00;;
72684;SDS011;61365;52.162;4.500;2022-11-20T01:16:25;20.73;;;10.68;;
72684;SDS011;61365;52.162;4.500;2022-11-20T01:18:58;19.52;;;10.60;;
72684;SDS011;61365;52.162;4.500;2022-11-20T01:21:37;20.88;;;10.55;;
72684;SDS011;61365;52.162;4.500;2022-11-20T01:24:07;20.92;;;10.40;;
72684;SDS011;61365;52.162;4.500;2022-11-20T01:26:38;19.00;;;11.20;;
72684;SDS011;61365;52.162;4.500;2022-11-20T01:29:07;21.20;;;10.63;;
72684;SDS011;61365;52.162;4.500;2022-11-20T01:34:07;21.92;;;11.57;;
72684;SDS011;61365;52.162;4.500;2022-11-20T01:36:39;23.67;;;12.13;;
72684;SDS011;61365;52.162;4.500;2022-11-20T01:39:10;24.00;;;12.52;;
72684;SDS011;61365;52.162;4.500;2022-11-20T01:41:45;22.67;;;11.65;;
72684;SDS011;61365;52.162;4.500;2022-11-20T01:47:23;24.08;;;11.40;;
72684;SDS011;61365;52.162;4.500;2022-11-20T01:50:12;21.73;;;11.30;;
72684;SDS011;61365;52.162;4.500;2022-11-20T01:52:54;24.83;;;11.85;;
72684;SDS011;61365;52.162;4.500;2022-11-20T01:55:29;23.15;;;11.60;;
72684;SDS011;61365;52.162;4.500;2022-11-20T01:58:01;18.23;;;10.50;;
72684;SDS011;61365;52.162;4.500;2022-11-20T02:00:29;19.55;;;10.95;;
72684;SDS011;61365;52.162;4.500;2022-11-20T02:03:00;22.92;;;11.57;;
72684;SDS011;61365;52.162;4.500;2022-11-20T02:08:27;22.15;;;10.85;;
72684;SDS011;61365;52.162;4.500;2022-11-20T02:10:54;21.38;;;11.02;;
72684;SDS011;61365;52.162;4.500;2022-11-20T02:13:21;21.63;;;11.13;;
72684;SDS011;61365;52.162;4.500;2022-11-20T02:16:08;21.45;;;11.15;;
72684;SDS011;61365;52.162;4.500;2022-11-20T02:18:58;18.15;;;10.02;;
72684;SDS011;61365;52.162;4.500;2022-11-20T02:24:37;18.30;;;9.27;;
72684;SDS011;61365;52.162;4.500;2022-11-20T02:27:12;20.55;;;10.82;;
72684;SDS011;61365;52.162;4.500;2022-11-20T02:29:42;20.65;;;11.27;;
72684;SDS011;61365;52.162;4.500;2022-11-20T02:32:23;22.30;;;11.52;;
72684;SDS011;61365;52.162;4.500;2022-11-20T02:34:52;21.27;;;12.07;;
72684;SDS011;61365;52.162;4.500;2022-11-20T02:37:19;19.23;;;10.57;;
72684;SDS011;61365;52.162;4.500;2022-11-20T02:39:47;23.10;;;11.73;;
72684;SDS011;61365;52.162;4.500;2022-11-20T02:42:17;22.33;;;11.68;;
72684;SDS011;61365;52.162;4.500;2022-11-20T02:44:44;23.00;;;11.90;;
72684;SDS011;61365;52.162;4.500;2022-11-20T02:47:10;22.13;;;11.57;;
72684;SDS011;61365;52.162;4.500;2022-11-20T02:49:37;22.25;;;11.05;;
72684;SDS011;61365;52.162;4.500;2022-11-20T02:52:03;19.35;;;10.32;;
72684;SDS011;61365;52.162;4.500;2022-11-20T02:54:30;20.40;;;10.32;;
72684;SDS011;61365;52.162;4.500;2022-11-20T02:56:56;21.15;;;10.77;;
72684;SDS011;61365;52.162;4.500;2022-11-20T02:59:22;22.15;;;11.35;;
72684;SDS011;61365;52.162;4.500;2022-11-20T03:01:49;20.70;;;10.73;;
72684;SDS011;61365;52.162;4.500;2022-11-20T03:04:15;22.73;;;11.60;;
72684;SDS011;61365;52.162;4.500;2022-11-20T03:06:42;19.73;;;11.73;;
72684;SDS011;61365;52.162;4.500;2022-11-20T03:09:08;21.92;;;11.60;;
72684;SDS011;61365;52.162;4.500;2022-11-20T03:11:34;21.90;;;11.93;;
72684;SDS011;61365;52.162;4.500;2022-11-20T03:14:02;21.77;;;10.50;;
72684;SDS011;61365;52.162;4.500;2022-11-20T03:16:30;21.42;;;12.07;;
72684;SDS011;61365;52.162;4.500;2022-11-20T03:18:58;22.17;;;11.65;;
72684;SDS011;61365;52.162;4.500;2022-11-20T03:21:25;19.42;;;11.27;;
72684;SDS011;61365;52.162;4.500;2022-11-20T03:23:52;21.40;;;11.18;;
72684;SDS011;61365;52.162;4.500;2022-11-20T03:26:21;22.85;;;11.40;;
72684;SDS011;61365;52.162;4.500;2022-11-20T03:28:51;20.85;;;11.25;;
72684;SDS011;61365;52.162;4.500;2022-11-20T03:31:24;21.33;;;11.63;;
72684;SDS011;61365;52.162;4.500;2022-11-20T03:33:56;23.55;;;12.05;;
72684;SDS011;61365;52.162;4.500;2022-11-20T03:36:23;21.80;;;11.38;;
72684;SDS011;61365;52.162;4.500;2022-11-20T03:38:52;22.05;;;11.75;;
72684;SDS011;61365;52.162;4.500;2022-11-20T03:41:21;25.08;;;12.82;;
72684;SDS011;61365;52.162;4.500;2022-11-20T03:43:54;23.35;;;12.27;;
72684;SDS011;61365;52.162;4.500;2022-11-20T03:46:27;22.27;;;11.95;;
72684;SDS011;61365;52.162;4.500;2022-11-20T03:48:55;26.13;;;12.93;;
72684;SDS011;61365;52.162;4.500;2022-11-20T03:51:23;24.50;;;12.68;;
72684;SDS011;61365;52.162;4.500;2022-11-20T03:53:54;22.83;;;12.15;;
72684;SDS011;61365;52.162;4.500;2022-11-20T03:56:26;24.85;;;12.63;;
72684;SDS011;61365;52.162;4.500;2022-11-20T03:58:56;22.75;;;12.07;;
72684;SDS011;61365;52.162;4.500;2022-11-20T04:01:27;23.08;;;12.52;;
72684;SDS011;61365;52.162;4.500;2022-11-20T04:03:57;22.60;;;11.93;;
72684;SDS011;61365;52.162;4.500;2022-11-20T04:06:27;22.33;;;11.85;;
72684;SDS011;61365;52.162;4.500;2022-11-20T04:09:00;22.27;;;11.25;;
72684;SDS011;61365;52.162;4.500;2022-11-20T04:11:28;20.77;;;11.23;;
72684;SDS011;61365;52.162;4.500;2022-11-20T04:13:58;23.00;;;11.98;;
72684;SDS011;61365;52.162;4.500;2022-11-20T04:16:32;24.02;;;11.68;;
72684;SDS011;61365;52.162;4.500;2022-11-20T04:19:02;22.45;;;12.18;;
72684;SDS011;61365;52.162;4.500;2022-11-20T04:21:31;28.60;;;13.40;;
72684;SDS011;61365;52.162;4.500;2022-11-20T04:23:58;26.50;;;12.90;;
72684;SDS011;61365;52.162;4.500;2022-11-20T04:26:25;26.17;;;12.93;;
72684;SDS011;61365;52.162;4.500;2022-11-20T04:28:54;29.10;;;14.13;;
72684;SDS011;61365;52.162;4.500;2022-11-20T04:31:22;27.05;;;12.90;;
72684;SDS011;61365;52.162;4.500;2022-11-20T04:33:52;28.90;;;14.35;;
72684;SDS011;61365;52.162;4.500;2022-11-20T04:36:20;26.88;;;12.65;;
72684;SDS011;61365;52.162;4.500;2022-11-20T04:38:52;24.20;;;12.55;;
72684;SDS011;61365;52.162;4.500;2022-11-20T04:41:22;20.27;;;11.25;;
72684;SDS011;61365;52.162;4.500;2022-11-20T04:43:55;24.58;;;12.40;;
72684;SDS011;61365;52.162;4.500;2022-11-20T04:46:37;20.92;;;11.48;;
72684;SDS011;61365;52.162;4.500;2022-11-20T04:49:06;21.60;;;12.10;;
72684;SDS011;61365;52.162;4.500;2022-11-20T04:51:34;23.58;;;12.52;;
72684;SDS011;61365;52.162;4.500;2022-11-20T04:54:00;25.17;;;11.55;;
72684;SDS011;61365;52.162;4.500;2022-11-20T04:56:27;22.25;;;12.13;;
72684;SDS011;61365;52.162;4.500;2022-11-20T04:58:53;23.23;;;12.13;;
72684;SDS011;61365;52.162;4.500;2022-11-20T05:01:21;25.45;;;12.00;;
72684;SDS011;61365;52.162;4.500;2022-11-20T05:03:50;23.65;;;12.38;;
72684;SDS011;61365;52.162;4.500;2022-11-20T05:06:18;22.80;;;11.40;;
72684;SDS011;61365;52.162;4.500;2022-11-20T05:08:46;30.27;;;13.45;;
72684;SDS011;61365;52.162;4.500;2022-11-20T05:11:14;24.73;;;12.23;;
72684;SDS011;61365;52.162;4.500;2022-11-20T05:16:23;22.40;;;12.32;;
72684;SDS011;61365;52.162;4.500;2022-11-20T05:18:50;25.33;;;12.48;;
72684;SDS011;61365;52.162;4.500;2022-11-20T05:21:20;23.30;;;12.35;;
72684;SDS011;61365;52.162;4.500;2022-11-20T05:23:47;24.48;;;11.90;;
72684;SDS011;61365;52.162;4.500;2022-11-20T05:26:15;25.60;;;13.00;;
72684;SDS011;61365;52.162;4.500;2022-11-20T05:28:47;26.00;;;12.77;;
72684;SDS011;61365;52.162;4.500;2022-11-20T05:31:16;25.67;;;12.75;;
72684;SDS011;61365;52.162;4.500;2022-11-20T05:33:46;21.77;;;12.38;;
72684;SDS011;61365;52.162;4.500;2022-11-20T05:36:13;23.52;;;12.57;;
72684;SDS011;61365;52.162;4.500;2022-11-20T05:38:41;24.50;;;12.32;;
72684;SDS011;61365;52.162;4.500;2022-11-20T05:41:13;22.23;;;11.70;;
72684;SDS011;61365;52.162;4.500;2022-11-20T05:43:43;22.17;;;12.80;;
72684;SDS011;61365;52.162;4.500;2022-11-20T05:46:12;22.63;;;12.35;;
72684;SDS011;61365;52.162;4.500;2022-11-20T05:48:42;22.77;;;11.90;;
72684;SDS011;61365;52.162;4.500;2022-11-20T05:51:11;24.08;;;11.82;;
72684;SDS011;61365;52.162;4.500;2022-11-20T05:53:41;21.27;;;11.35;;
72684;SDS011;61365;52.162;4.500;2022-11-20T05:56:15;23.15;;;12.02;;
72684;SDS011;61365;52.162;4.500;2022-11-20T05:58:45;24.25;;;12.70;;
72684;SDS011;61365;52.162;4.500;2022-11-20T06:01:14;21.75;;;12.13;;
72684;SDS011;61365;52.162;4.500;2022-11-20T06:03:46;24.40;;;12.05;;
72684;SDS011;61365;52.162;4.500;2022-11-20T06:06:16;25.20;;;12.10;;
72684;SDS011;61365;52.162;4.500;2022-11-20T06:08:44;24.02;;;13.30;;
72684;SDS011;61365;52.162;4.500;2022-11-20T06:11:12;24.67;;;12.90;;
72684;SDS011;61365;52.162;4.500;2022-11-20T06:13:40;24.00;;;12.63;;
72684;SDS011;61365;52.162;4.500;2022-11-20T06:16:07;23.58;;;12.05;;
72684;SDS011;61365;52.162;4.500;2022-11-20T06:18:36;24.92;;;12.70;;
72684;SDS011;61365;52.162;4.500;2022-11-20T06:23:35;27.80;;;13.30;;
72684;SDS011;61365;52.162;4.500;2022-11-20T06:26:05;21.88;;;11.95;;
72684;SDS011;61365;52.162;4.500;2022-11-20T06:28:37;24.00;;;12.82;;
72684;SDS011;61365;52.162;4.500;2022-11-20T06:31:05;27.33;;;13.32;;
72684;SDS011;61365;52.162;4.500;2022-11-20T06:33:32;26.95;;;13.10;;
72684;SDS011;61365;52.162;4.500;2022-11-20T06:36:00;27.33;;;14.13;;
72684;SDS011;61365;52.162;4.500;2022-11-20T06:38:27;24.80;;;12.98;;
72684;SDS011;61365;52.162;4.500;2022-11-20T06:40:54;22.65;;;12.23;;
72684;SDS011;61365;52.162;4.500;2022-11-20T06:43:21;24.15;;;12.73;;
72684;SDS011;61365;52.162;4.500;2022-11-20T06:45:52;30.63;;;14.00;;
72684;SDS011;61365;52.162;4.500;2022-11-20T06:48:20;25.67;;;12.77;;
72684;SDS011;61365;52.162;4.500;2022-11-20T06:50:47;25.42;;;13.63;;
72684;SDS011;61365;52.162;4.500;2022-11-20T06:53:13;24.85;;;13.32;;
72684;SDS011;61365;52.162;4.500;2022-11-20T06:55:45;24.33;;;12.95;;
72684;SDS011;61365;52.162;4.500;2022-11-20T06:58:13;25.20;;;12.90;;
72684;SDS011;61365;52.162;4.500;2022-11-20T07:00:41;26.80;;;13.52;;
72684;SDS011;61365;52.162;4.500;2022-11-20T07:03:09;26.00;;;12.98;;
72684;SDS011;61365;52.162;4.500;2022-11-20T07:05:37;24.77;;;13.23;;
72684;SDS011;61365;52.162;4.500;2022-11-20T07:08:04;27.75;;;13.80;;
72684;SDS011;61365;52.162;4.500;2022-11-20T07:10:31;27.50;;;14.13;;
72684;SDS011;61365;52.162;4.500;2022-11-20T07:12:58;26.98;;;13.32;;
72684;SDS011;61365;52.162;4.500;2022-11-20T07:15:25;27.95;;;13.85;;
72684;SDS011;61365;52.162;4.500;2022-11-20T07:17:51;24.52;;;13.13;;
72684;SDS011;61365;52.162;4.500;2022-11-20T07:20:18;25.00;;;12.45;;
72684;SDS011;61365;52.162;4.500;2022-11-20T07:22:44;23.38;;;13.10;;
72684;SDS011;61365;52.162;4.500;2022-11-20T07:25:10;27.33;;;14.48;;
72684;SDS011;61365;52.162;4.500;2022-11-20T07:27:37;26.55;;;14.57;;
72684;SDS011;61365;52.162;4.500;2022-11-20T07:30:03;31.10;;;13.95;;
72684;SDS011;61365;52.162;4.500;2022-11-20T07:32:30;26.27;;;13.18;;
72684;SDS011;61365;52.162;4.500;2022-11-20T07:34:57;25.08;;;13.85;;
72684;SDS011;61365;52.162;4.500;2022-11-20T07:37:23;23.80;;;12.38;;
72684;SDS011;61365;52.162;4.500;2022-11-20T07:39:49;27.15;;;13.40;;
72684;SDS011;61365;52.162;4.500;2022-11-20T07:42:15;25.08;;;13.02;;
72684;SDS011;61365;52.162;4.500;2022-11-20T07:44:42;28.10;;;13.88;;
72684;SDS011;61365;52.162;4.500;2022-11-20T07:47:08;24.77;;;13.20;;
72684;SDS011;61365;52.162;4.500;2022-11-20T07:49:34;26.13;;;13.23;;
72684;SDS011;61365;52.162;4.500;2022-11-20T07:52:01;23.73;;;12.85;;
72684;SDS011;61365;52.162;4.500;2022-11-20T07:54:27;26.52;;;13.35;;
72684;SDS011;61365;52.162;4.500;2022-11-20T07:56:53;27.35;;;13.95;;
72684;SDS011;61365;52.162;4.500;2022-11-20T07:59:20;25.23;;;14.35;;
72684;SDS011;61365;52.162;4.500;2022-11-20T08:01:46;25.70;;;13.38;;
72684;SDS011;61365;52.162;4.500;2022-11-20T08:04:13;27.50;;;14.85;;
72684;SDS011;61365;52.162;4.500;2022-11-20T08:06:42;27.75;;;14.45;;
72684;SDS011;61365;52.162;4.500;2022-11-20T08:09:08;25.70;;;13.50;;
72684;SDS011;61365;52.162;4.500;2022-11-20T08:11:35;29.67;;;15.75;;
72684;SDS011;61365;52.162;4.500;2022-11-20T08:14:20;26.20;;;14.30;;
72684;SDS011;61365;52.162;4.500;2022-11-20T08:16:47;26.48;;;14.38;;
72684;SDS011;61365;52.162;4.500;2022-11-20T08:19:16;29.38;;;15.40;;
72684;SDS011;61365;52.162;4.500;2022-11-20T08:21:44;29.42;;;14.93;;
72684;SDS011;61365;52.162;4.500;2022-11-20T08:24:11;30.23;;;15.35;;
72684;SDS011;61365;52.162;4.500;2022-11-20T08:26:38;32.13;;;16.17;;
72684;SDS011;61365;52.162;4.500;2022-11-20T08:29:05;32.47;;;16.00;;
72684;SDS011;61365;52.162;4.500;2022-11-20T08:31:33;27.83;;;14.60;;
72684;SDS011;61365;52.162;4.500;2022-11-20T08:33:59;26.33;;;14.57;;
72684;SDS011;61365;52.162;4.500;2022-11-20T08:36:25;24.90;;;13.02;;
72684;SDS011;61365;52.162;4.500;2022-11-20T08:38:52;28.20;;;14.55;;
72684;SDS011;61365;52.162;4.500;2022-11-20T08:41:21;23.90;;;13.85;;
72684;SDS011;61365;52.162;4.500;2022-11-20T08:43:53;25.88;;;14.60;;
72684;SDS011;61365;52.162;4.500;2022-11-20T08:46:26;26.23;;;14.70;;
72684;SDS011;61365;52.162;4.500;2022-11-20T08:48:59;26.17;;;13.10;;
72684;SDS011;61365;52.162;4.500;2022-11-20T08:51:25;28.20;;;14.63;;
72684;SDS011;61365;52.162;4.500;2022-11-20T08:53:52;27.20;;;14.43;;
72684;SDS011;61365;52.162;4.500;2022-11-20T08:56:19;36.92;;;17.70;;
72684;SDS011;61365;52.162;4.500;2022-11-20T08:58:45;28.63;;;15.95;;
72684;SDS011;61365;52.162;4.500;2022-11-20T09:01:11;28.88;;;14.55;;
72684;SDS011;61365;52.162;4.500;2022-11-20T09:03:38;28.63;;;14.88;;
72684;SDS011;61365;52.162;4.500;2022-11-20T09:06:05;28.58;;;14.48;;
72684;SDS011;61365;52.162;4.500;2022-11-20T09:08:33;29.55;;;16.38;;
72684;SDS011;61365;52.162;4.500;2022-11-20T09:11:01;25.90;;;13.90;;
72684;SDS011;61365;52.162;4.500;2022-11-20T09:13:29;28.52;;;15.35;;
72684;SDS011;61365;52.162;4.500;2022-11-20T09:15:59;27.67;;;15.40;;
72684;SDS011;61365;52.162;4.500;2022-11-20T09:18:28;25.55;;;14.95;;
72684;SDS011;61365;52.162;4.500;2022-11-20T09:20:58;30.30;;;15.68;;
72684;SDS011;61365;52.162;4.500;2022-11-20T09:23:26;26.98;;;14.23;;
72684;SDS011;61365;52.162;4.500;2022-11-20T09:25:53;27.67;;;14.48;;
72684;SDS011;61365;52.162;4.500;2022-11-20T09:28:21;27.63;;;15.18;;
72684;SDS011;61365;52.162;4.500;2022-11-20T09:30:47;29.48;;;15.85;;
72684;SDS011;61365;52.162;4.500;2022-11-20T09:33:14;28.77;;;14.80;;
72684;SDS011;61365;52.162;4.500;2022-11-20T09:35:40;28.27;;;15.43;;
72684;SDS011;61365;52.162;4.500;2022-11-20T09:38:06;27.70;;;15.82;;
72684;SDS011;61365;52.162;4.500;2022-11-20T09:40:34;27.40;;;14.93;;
72684;SDS011;61365;52.162;4.500;2022-11-20T09:43:24;29.48;;;16.58;;
72684;SDS011;61365;52.162;4.500;2022-11-20T09:46:07;29.25;;;16.10;;
72684;SDS011;61365;52.162;4.500;2022-11-20T09:51:53;32.95;;;16.23;;
72684;SDS011;61365;52.162;4.500;2022-11-20T09:54:27;32.42;;;17.15;;
72684;SDS011;61365;52.162;4.500;2022-11-20T09:57:03;27.55;;;15.75;;
72684;SDS011;61365;52.162;4.500;2022-11-20T09:59:46;31.13;;;16.67;;
72684;SDS011;61365;52.162;4.500;2022-11-20T10:04:54;31.77;;;17.15;;
72684;SDS011;61365;52.162;4.500;2022-11-20T10:07:30;34.05;;;18.30;;
72684;SDS011;61365;52.162;4.500;2022-11-20T10:10:30;35.53;;;17.77;;
72684;SDS011;61365;52.162;4.500;2022-11-20T10:25:33;36.70;;;17.92;;
72684;SDS011;61365;52.162;4.500;2022-11-20T10:31:09;33.40;;;18.75;;
72684;SDS011;61365;52.162;4.500;2022-11-20T10:33:55;34.75;;;18.35;;
72684;SDS011;61365;52.162;4.500;2022-11-20T10:36:33;33.70;;;18.42;;
72684;SDS011;61365;52.162;4.500;2022-11-20T10:39:15;35.72;;;18.58;;
72684;SDS011;61365;52.162;4.500;2022-11-20T10:41:48;38.65;;;18.63;;
72684;SDS011;61365;52.162;4.500;2022-11-20T10:44:20;36.65;;;19.17;;
72684;SDS011;61365;52.162;4.500;2022-11-20T10:47:14;37.70;;;18.77;;
72684;SDS011;61365;52.162;4.500;2022-11-20T10:49:48;33.72;;;17.58;;
72684;SDS011;61365;52.162;4.500;2022-11-20T10:52:34;38.22;;;19.80;;
72684;SDS011;61365;52.162;4.500;2022-11-20T11:02:24;35.78;;;19.00;;
72684;SDS011;61365;52.162;4.500;2022-11-20T11:04:59;35.70;;;17.77;;
72684;SDS011;61365;52.162;4.500;2022-11-20T11:07:48;40.17;;;20.85;;
72684;SDS011;61365;52.162;4.500;2022-11-20T11:10:21;38.70;;;21.00;;
72684;SDS011;61365;52.162;4.500;2022-11-20T11:13:02;42.47;;;20.67;;
72684;SDS011;61365;52.162;4.500;2022-11-20T11:15:30;38.70;;;19.92;;
72684;SDS011;61365;52.162;4.500;2022-11-20T11:18:08;40.45;;;20.00;;
72684;SDS011;61365;52.162;4.500;2022-11-20T11:20:37;39.42;;;20.88;;
72684;SDS011;61365;52.162;4.500;2022-11-20T11:23:04;40.25;;;19.67;;
72684;SDS011;61365;52.162;4.500;2022-11-20T11:25:34;39.22;;;19.90;;
72684;SDS011;61365;52.162;4.500;2022-11-20T11:28:17;44.25;;;21.48;;
72684;SDS011;61365;52.162;4.500;2022-11-20T11:30:47;45.25;;;20.80;;
72684;SDS011;61365;52.162;4.500;2022-11-20T11:33:24;38.28;;;19.50;;
72684;SDS011;61365;52.162;4.500;2022-11-20T11:35:54;37.80;;;19.27;;
72684;SDS011;61365;52.162;4.500;2022-11-20T11:41:09;42.13;;;21.42;;
72684;SDS011;61365;52.162;4.500;2022-11-20T11:43:51;38.80;;;19.83;;
72684;SDS011;61365;52.162;4.500;2022-11-20T11:46:40;38.13;;;20.63;;
72684;SDS011;61365;52.162;4.500;2022-11-20T11:49:19;40.42;;;21.17;;
72684;SDS011;61365;52.162;4.500;2022-11-20T11:54:44;43.00;;;21.80;;
72684;SDS011;61365;52.162;4.500;2022-11-20T12:00:05;43.13;;;22.27;;
72684;SDS011;61365;52.162;4.500;2022-11-20T12:05:23;39.80;;;20.67;;
72684;SDS011;61365;52.162;4.500;2022-11-20T12:11:32;42.67;;;22.30;;
72684;SDS011;61365;52.162;4.500;2022-11-20T12:17:04;45.90;;;22.90;;
72684;SDS011;61365;52.162;4.500;2022-11-20T12:19:31;46.40;;;23.35;;
72684;SDS011;61365;52.162;4.500;2022-11-20T12:22:13;46.78;;;23.63;;
72684;SDS011;61365;52.162;4.500;2022-11-20T12:33:41;44.17;;;22.08;;
72684;SDS011;61365;52.162;4.500;2022-11-20T12:36:50;42.67;;;22.83;;
72684;SDS011;61365;52.162;4.500;2022-11-20T12:51:31;53.08;;;24.05;;
72684;SDS011;61365;52.162;4.500;2022-11-20T12:57:00;49.00;;;23.92;;
72684;SDS011;61365;52.162;4.500;2022-11-20T13:00:36;56.05;;;25.52;;
72684;SDS011;61365;52.162;4.500;2022-11-20T13:06:14;60.00;;;26.85;;
72684;SDS011;61365;52.162;4.500;2022-11-20T13:08:53;57.63;;;27.42;;
72684;SDS011;61365;52.162;4.500;2022-11-20T13:11:36;71.40;;;30.45;;
72684;SDS011;61365;52.162;4.500;2022-11-20T13:14:14;65.55;;;28.98;;
72684;SDS011;61365;52.162;4.500;2022-11-20T13:17:17;69.20;;;27.15;;
72684;SDS011;61365;52.162;4.500;2022-11-20T13:20:01;54.13;;;25.52;;
72684;SDS011;61365;52.162;4.500;2022-11-20T13:22:48;63.00;;;27.35;;
72684;SDS011;61365;52.162;4.500;2022-11-20T13:25:28;72.70;;;30.60;;
72684;SDS011;61365;52.162;4.500;2022-11-20T13:28:01;58.83;;;25.33;;
72684;SDS011;61365;52.162;4.500;2022-11-20T13:30:52;66.05;;;28.42;;
72684;SDS011;61365;52.162;4.500;2022-11-20T13:33:26;61.35;;;26.65;;
72684;SDS011;61365;52.162;4.500;2022-11-20T13:36:07;63.70;;;27.52;;
72684;SDS011;61365;52.162;4.500;2022-11-20T13:38:53;67.50;;;30.42;;
72684;SDS011;61365;52.162;4.500;2022-11-20T13:43:54;64.18;;;27.08;;
72684;SDS011;61365;52.162;4.500;2022-11-20T13:46:39;68.18;;;29.98;;
72684;SDS011;61365;52.162;4.500;2022-11-20T13:51:48;75.57;;;31.05;;
72684;SDS011;61365;52.162;4.500;2022-11-20T13:54:22;70.05;;;30.80;;
72684;SDS011;61365;52.162;4.500;2022-11-20T14:02:57;72.97;;;30.45;;
72684;SDS011;61365;52.162;4.500;2022-11-20T14:05:52;73.32;;;30.90;;
72684;SDS011;61365;52.162;4.500;2022-11-20T14:08:29;69.68;;;32.20;;
72684;SDS011;61365;52.162;4.500;2022-11-20T14:11:14;80.53;;;34.03;;
72684;SDS011;61365;52.162;4.500;2022-11-20T14:13:57;83.07;;;34.15;;
72684;SDS011;61365;52.162;4.500;2022-11-20T14:16:32;80.90;;;34.05;;
72684;SDS011;61365;52.162;4.500;2022-11-20T14:19:22;119.35;;;39.83;;
72684;SDS011;61365;52.162;4.500;2022-11-20T14:22:06;98.55;;;37.65;;
72684;SDS011;61365;52.162;4.500;2022-11-20T14:24:34;90.68;;;35.55;;
72684;SDS011;61365;52.162;4.500;2022-11-20T14:27:00;77.10;;;33.95;;
72684;SDS011;61365;52.162;4.500;2022-11-20T14:29:28;87.30;;;35.95;;
72684;SDS011;61365;52.162;4.500;2022-11-20T14:32:00;91.93;;;36.78;;
72684;SDS011;61365;52.162;4.500;2022-11-20T14:34:30;89.13;;;35.78;;
72684;SDS011;61365;52.162;4.500;2022-11-20T14:37:06;84.30;;;34.78;;
72684;SDS011;61365;52.162;4.500;2022-11-20T14:42:15;79.32;;;33.00;;
72684;SDS011;61365;52.162;4.500;2022-11-20T14:44:45;90.28;;;34.65;;
72684;SDS011;61365;52.162;4.500;2022-11-20T14:47:15;87.18;;;34.78;;
72684;SDS011;61365;52.162;4.500;2022-11-20T14:49:48;114.00;;;41.58;;
72684;SDS011;61365;52.162;4.500;2022-11-20T14:52:19;82.93;;;34.13;;
72684;SDS011;61365;52.162;4.500;2022-11-20T14:54:52;94.30;;;36.15;;
72684;SDS011;61365;52.162;4.500;2022-11-20T14:57:22;82.95;;;32.50;;
72684;SDS011;61365;52.162;4.500;2022-11-20T15:00:05;88.95;;;35.67;;
72684;SDS011;61365;52.162;4.500;2022-11-20T15:02:52;90.68;;;36.15;;
72684;SDS011;61365;52.162;4.500;2022-11-20T15:05:20;81.00;;;32.00;;
72684;SDS011;61365;52.162;4.500;2022-11-20T15:08:10;83.80;;;34.67;;
72684;SDS011;61365;52.162;4.500;2022-11-20T15:10:39;91.78;;;37.45;;
72684;SDS011;61365;52.162;4.500;2022-11-20T15:13:15;101.25;;;38.60;;
72684;SDS011;61365;52.162;4.500;2022-11-20T15:15:52;111.00;;;38.75;;
72684;SDS011;61365;52.162;4.500;2022-11-20T15:18:22;117.10;;;40.15;;
72684;SDS011;61365;52.162;4.500;2022-11-20T15:21:16;120.78;;;39.75;;
72684;SDS011;61365;52.162;4.500;2022-11-20T15:23:46;91.28;;;38.22;;
72684;SDS011;61365;52.162;4.500;2022-11-20T15:26:14;84.28;;;35.83;;
72684;SDS011;61365;52.162;4.500;2022-11-20T15:28:55;98.85;;;36.53;;
72684;SDS011;61365;52.162;4.500;2022-11-20T15:31:22;94.88;;;36.83;;
72684;SDS011;61365;52.162;4.500;2022-11-20T15:33:50;102.90;;;37.80;;
72684;SDS011;61365;52.162;4.500;2022-11-20T15:36:16;75.57;;;34.28;;
72684;SDS011;61365;52.162;4.500;2022-11-20T15:38:43;76.45;;;33.83;;
72684;SDS011;61365;52.162;4.500;2022-11-20T15:41:09;67.88;;;32.05;;
72684;SDS011;61365;52.162;4.500;2022-11-20T15:43:36;76.18;;;34.63;;
72684;SDS011;61365;52.162;4.500;2022-11-20T15:46:03;102.75;;;41.55;;
72684;SDS011;61365;52.162;4.500;2022-11-20T15:48:38;68.22;;;32.30;;
72684;SDS011;61365;52.162;4.500;2022-11-20T15:53:37;71.30;;;32.75;;
72684;SDS011;61365;52.162;4.500;2022-11-20T15:56:06;63.58;;;30.73;;
72684;SDS011;61365;52.162;4.500;2022-11-20T15:58:38;71.55;;;31.73;;
72684;SDS011;61365;52.162;4.500;2022-11-20T16:01:05;70.70;;;31.23;;
72684;SDS011;61365;52.162;4.500;2022-11-20T16:03:37;75.47;;;32.45;;
72684;SDS011;61365;52.162;4.500;2022-11-20T16:06:04;72.85;;;33.40;;
72684;SDS011;61365;52.162;4.500;2022-11-20T16:08:31;80.45;;;35.42;;
72684;SDS011;61365;52.162;4.500;2022-11-20T16:10:58;74.35;;;33.53;;
72684;SDS011;61365;52.162;4.500;2022-11-20T16:13:24;86.88;;;38.13;;
72684;SDS011;61365;52.162;4.500;2022-11-20T16:16:19;83.70;;;37.00;;
72684;SDS011;61365;52.162;4.500;2022-11-20T16:18:51;79.40;;;34.67;;
72684;SDS011;61365;52.162;4.500;2022-11-20T16:21:17;73.80;;;34.67;;
72684;SDS011;61365;52.162;4.500;2022-11-20T16:23:44;82.55;;;36.20;;
72684;SDS011;61365;52.162;4.500;2022-11-20T16:26:14;87.47;;;37.92;;
72684;SDS011;61365;52.162;4.500;2022-11-20T16:28:42;72.03;;;33.77;;
72684;SDS011;61365;52.162;4.500;2022-11-20T16:31:10;100.28;;;39.60;;
72684;SDS011;61365;52.162;4.500;2022-11-20T16:33:39;68.22;;;31.35;;